Time;durP1;ratioP1;P1;durP2;ratioP2;P2;SDS_P1;SDS_P2;PMS_P1;PMS_P2;Temp;Humidity;BMP_temperature;BMP_pressure;BME280_temperature;BME280_humidity;BME280_pressure;Samples;Min_cycle;Max_cycle;Signal;HPM_P1;HPM_P2
2022/06/16 00:01:50;;;;;;;;;22.67;22.67;25.10;40.20;;;;;;5073559;28;9434;-74
2022/06/16 00:04:16;;;;;;;;;19.67;19.67;24.80;40.00;;;;;;5074463;28;8757;-75
2022/06/16 00:06:41;;;;;;;;;23.33;23.33;24.80;40.30;;;;;;5075487;28;8843;-74
2022/06/16 00:09:07;;;;;;;;;33.67;33.00;24.70;40.50;;;;;;5087384;28;8811;-73
2022/06/16 00:11:33;;;;;;;;;30.00;30.00;24.40;40.80;;;;;;5088197;28;8782;-74
2022/06/16 00:13:59;;;;;;;;;35.33;33.67;24.40;40.50;;;;;;5056630;28;8762;-74
2022/06/16 00:16:25;;;;;;;;;30.00;29.00;24.40;40.90;;;;;;5074183;28;8774;-73
2022/06/16 00:18:51;;;;;;;;;30.33;30.33;24.30;41.20;;;;;;5074041;28;8805;-75
2022/06/16 00:21:17;;;;;;;;;28.67;28.67;24.10;41.70;;;;;;5056354;28;8762;-76
2022/06/16 00:23:44;;;;;;;;;25.67;25.67;24.20;41.70;;;;;;5074026;28;8798;-75
2022/06/16 00:26:16;;;;;;;;;21.67;21.67;24.40;41.40;;;;;;5074024;28;8790;-75
2022/06/16 00:28:42;;;;;;;;;21.00;21.00;24.40;41.60;;;;;;5056090;28;8846;-75
2022/06/16 00:31:11;;;;;;;;;20.67;20.67;24.40;41.20;;;;;;5074017;28;8738;-74
2022/06/16 00:33:37;;;;;;;;;16.33;16.33;24.50;41.60;;;;;;5073838;28;8773;-74
2022/06/16 00:36:03;;;;;;;;;21.67;21.67;24.50;41.30;;;;;;5074153;28;8766;-73
2022/06/16 00:38:29;;;;;;;;;19.67;19.67;24.50;41.20;;;;;;5074117;28;9477;-73
2022/06/16 00:40:55;;;;;;;;;22.00;22.00;24.50;41.20;;;;;;5073869;28;8762;-74
2022/06/16 00:43:21;;;;;;;;;19.00;19.00;24.50;41.30;;;;;;5073870;28;8835;-74
2022/06/16 00:45:49;;;;;;;;;20.33;20.33;24.50;41.50;;;;;;5073685;28;8812;-73
2022/06/16 00:48:31;;;;;;;;;19.67;19.67;24.40;41.30;;;;;;5073820;28;8746;-75
2022/06/16 00:51:09;;;;;;;;;21.00;21.00;24.50;41.30;;;;;;5073817;28;8765;-74
2022/06/16 00:53:37;;;;;;;;;18.67;18.67;24.50;41.30;;;;;;5073842;28;8751;-74
2022/06/16 00:56:04;;;;;;;;;19.67;19.67;24.40;41.40;;;;;;5073945;28;8777;-75
2022/06/16 00:58:33;;;;;;;;;19.33;19.33;24.40;41.60;;;;;;5073809;28;8773;-74
2022/06/16 01:01:00;;;;;;;;;20.67;20.67;24.40;40.90;;;;;;5074024;28;8781;-74
2022/06/16 01:06:23;;;;;;;;;19.67;19.67;24.30;41.30;;;;;;5073727;28;8802;-74
2022/06/16 01:08:55;;;;;;;;;20.67;20.67;24.30;41.60;;;;;;5074007;28;8794;-76
2022/06/16 01:14:49;;;;;;;;;21.33;21.33;24.10;41.60;;;;;;5061321;28;8770;-73
2022/06/16 01:17:42;;;;;;;;;14.33;14.33;24.10;41.90;;;;;;5076837;28;8823;-74
2022/06/16 01:20:27;;;;;;;;;21.00;21.00;24.10;41.60;;;;;;5089179;28;8804;-75
2022/06/16 01:23:18;;;;;;;;;21.33;21.33;24.10;41.50;;;;;;5090751;28;9491;-76
2022/06/16 01:26:07;;;;;;;;;19.67;19.67;24.10;41.70;;;;;;5097215;28;8876;-74
2022/06/16 01:28:44;;;;;;;;;17.00;16.67;24.10;41.20;;;;;;5095970;28;9542;-76
2022/06/16 01:31:22;;;;;;;;;18.33;18.00;24.10;41.30;;;;;;5097325;28;8740;-74
2022/06/16 01:33:59;;;;;;;;;18.00;18.00;23.90;41.40;;;;;;5097091;28;8772;-73
2022/06/16 01:36:51;;;;;;;;;18.67;18.67;23.40;42.80;;;;;;5097115;28;8760;-74
2022/06/16 01:39:31;;;;;;;;;16.67;16.67;23.50;42.90;;;;;;5059634;28;8849;-74
2022/06/16 01:42:15;;;;;;;;;19.00;19.00;23.70;42.50;;;;;;5097002;28;8790;-73
2022/06/16 01:44:55;;;;;;;;;18.67;18.67;23.70;42.50;;;;;;5097179;28;8798;-75
2022/06/16 01:47:23;;;;;;;;;21.33;21.33;23.80;42.50;;;;;;5096957;28;8837;-74
2022/06/16 01:49:55;;;;;;;;;18.00;18.00;23.80;42.10;;;;;;5096841;28;8844;-74
2022/06/16 01:52:25;;;;;;;;;16.67;16.67;23.90;42.00;;;;;;5096906;28;8733;-74
2022/06/16 01:54:58;;;;;;;;;20.33;20.33;23.90;42.10;;;;;;5097124;28;8778;-75
2022/06/16 01:57:37;;;;;;;;;22.00;22.00;23.90;42.10;;;;;;5096956;28;8802;-74
2022/06/16 02:00:19;;;;;;;;;23.33;23.33;23.90;42.20;;;;;;5094820;28;8772;-74
2022/06/16 02:02:57;;;;;;;;;22.00;20.00;23.80;42.10;;;;;;5085868;28;8783;-74
2022/06/16 02:05:26;;;;;;;;;18.33;18.33;23.80;42.60;;;;;;5096533;28;8852;-75
2022/06/16 02:08:22;;;;;;;;;19.00;19.00;23.80;42.60;;;;;;5096296;28;8830;-74
2022/06/16 02:11:02;;;;;;;;;20.33;20.33;23.60;42.60;;;;;;5094729;28;8767;-75
2022/06/16 02:13:34;;;;;;;;;19.00;19.00;23.70;42.40;;;;;;5096390;28;8890;-73
2022/06/16 02:16:18;;;;;;;;;23.00;23.00;23.70;42.80;;;;;;5096594;28;9476;-74
2022/06/16 02:18:45;;;;;;;;;20.00;20.00;23.80;42.10;;;;;;5096114;28;8830;-74
2022/06/16 02:21:16;;;;;;;;;20.33;20.33;23.80;42.20;;;;;;5096484;28;9515;-75
2022/06/16 02:23:42;;;;;;;;;14.67;14.67;23.80;42.00;;;;;;5096433;28;8767;-74
2022/06/16 02:26:09;;;;;;;;;21.00;21.00;23.80;42.30;;;;;;5095452;28;8817;-74
2022/06/16 02:28:42;;;;;;;;;19.67;19.67;23.80;42.40;;;;;;5096149;28;8868;-74
2022/06/16 02:31:34;;;;;;;;;20.33;20.33;23.80;42.00;;;;;;5095970;28;8760;-74
2022/06/16 02:34:14;;;;;;;;;21.00;21.00;23.80;42.20;;;;;;5096243;28;8775;-74
2022/06/16 02:37:03;;;;;;;;;16.00;16.00;23.70;42.00;;;;;;5096063;28;8740;-75
2022/06/16 02:39:55;;;;;;;;;17.33;17.33;23.60;41.90;;;;;;5093031;28;8752;-75
2022/06/16 02:42:52;;;;;;;;;16.67;16.67;23.60;42.20;;;;;;5075664;28;8799;-75
2022/06/16 02:45:30;;;;;;;;;22.00;22.00;23.60;42.10;;;;;;5080991;28;8817;-76
2022/06/16 02:48:26;;;;;;;;;19.33;19.33;23.60;41.90;;;;;;5075474;28;8742;-76
2022/06/16 02:51:31;;;;;;;;;19.33;19.33;23.60;41.90;;;;;;5075599;28;8772;-75
2022/06/16 02:54:11;;;;;;;;;16.33;16.33;23.60;41.70;;;;;;5057674;28;8778;-74
2022/06/16 02:56:49;;;;;;;;;18.00;18.00;23.60;41.90;;;;;;5075239;28;8796;-73
2022/06/16 02:59:24;;;;;;;;;18.33;18.33;23.60;41.90;;;;;;5075122;28;8758;-74
2022/06/16 03:01:51;;;;;;;;;15.00;15.00;23.50;42.40;;;;;;5075245;28;9527;-75
2022/06/16 03:04:18;;;;;;;;;18.00;18.00;23.40;42.40;;;;;;5075155;28;8746;-74
2022/06/16 03:06:46;;;;;;;;;19.67;19.67;23.40;42.40;;;;;;5075332;28;9451;-74
2022/06/16 03:09:13;;;;;;;;;19.33;19.33;23.40;42.20;;;;;;5075116;28;8794;-73
2022/06/16 03:11:39;;;;;;;;;18.33;18.33;23.40;42.00;;;;;;5075143;28;8881;-74
2022/06/16 03:14:05;;;;;;;;;19.33;19.33;23.40;42.20;;;;;;5074850;28;8776;-74
2022/06/16 03:16:32;;;;;;;;;20.00;20.00;23.40;42.20;;;;;;5075104;28;8758;-74
2022/06/16 03:18:58;;;;;;;;;22.00;22.00;23.20;42.20;;;;;;5074734;28;8802;-75
2022/06/16 03:21:24;;;;;;;;;21.67;21.67;23.20;42.70;;;;;;5076728;28;8909;-76
2022/06/16 03:23:50;;;;;;;;;21.00;21.00;23.10;42.70;;;;;;5085262;28;8851;-74
2022/06/16 03:26:16;;;;;;;;;21.00;21.00;23.00;43.00;;;;;;5074922;28;8781;-74
2022/06/16 03:28:42;;;;;;;;;21.33;21.33;23.00;42.70;;;;;;5074917;28;8750;-75
2022/06/16 03:31:07;;;;;;;;;20.67;20.67;23.10;42.90;;;;;;5074554;28;8766;-73
2022/06/16 03:33:33;;;;;;;;;20.00;20.00;23.10;43.10;;;;;;5074815;28;8770;-74
2022/06/16 03:35:59;;;;;;;;;18.00;18.00;23.00;43.00;;;;;;5074409;28;8770;-74
2022/06/16 03:38:30;;;;;;;;;20.00;20.00;23.00;43.30;;;;;;5074570;28;8806;-73
2022/06/16 03:40:56;;;;;;;;;19.67;19.67;23.10;43.10;;;;;;5074550;28;8835;-74
2022/06/16 03:43:22;;;;;;;;;18.33;18.33;23.10;43.30;;;;;;5074450;28;8750;-75
2022/06/16 03:45:47;;;;;;;;;18.33;18.33;23.10;43.20;;;;;;5074505;28;8833;-75
2022/06/16 03:48:13;;;;;;;;;17.33;17.33;23.20;43.30;;;;;;5074481;28;8774;-74
2022/06/16 03:50:39;;;;;;;;;18.67;18.67;23.20;43.20;;;;;;5074701;28;9542;-74
2022/06/16 03:53:06;;;;;;;;;17.67;17.67;23.20;43.00;;;;;;5074555;28;8762;-74
2022/06/16 03:55:32;;;;;;;;;20.00;20.00;23.10;43.20;;;;;;5074653;28;9497;-75
2022/06/16 03:57:58;;;;;;;;;22.33;22.33;23.00;43.10;;;;;;5074421;28;8766;-75
2022/06/16 04:00:24;;;;;;;;;21.67;21.67;23.00;43.20;;;;;;5083388;28;8908;-74
2022/06/16 04:05:36;;;;;;;;;19.00;19.00;23.00;43.60;;;;;;5094496;28;8796;-76
2022/06/16 04:08:03;;;;;;;;;17.67;17.67;23.00;44.00;;;;;;5094594;28;8920;-75
2022/06/16 04:10:29;;;;;;;;;25.00;25.00;23.00;43.90;;;;;;5094553;28;9430;-75
2022/06/16 04:12:54;;;;;;;;;23.33;23.33;23.20;43.90;;;;;;5076546;28;8790;-75
2022/06/16 04:15:20;;;;;;;;;19.33;19.33;23.20;44.00;;;;;;5094548;28;8848;-76
2022/06/16 04:17:46;;;;;;;;;19.00;19.00;23.30;44.00;;;;;;5094017;28;8795;-74
2022/06/16 04:20:12;;;;;;;;;19.33;19.00;23.30;43.80;;;;;;5094140;28;9387;-76
2022/06/16 04:22:38;;;;;;;;;17.67;17.67;23.30;43.80;;;;;;5085022;28;8776;-74
2022/06/16 04:25:05;;;;;;;;;17.67;17.67;23.40;43.60;;;;;;5082387;28;8834;-74
2022/06/16 04:27:31;;;;;;;;;17.00;17.00;23.40;43.70;;;;;;5085177;28;8786;-75
2022/06/16 04:29:57;;;;;;;;;21.67;21.67;23.50;43.80;;;;;;5074310;28;8876;-74
2022/06/16 04:32:23;;;;;;;;;23.00;23.00;23.50;43.70;;;;;;5074196;28;8774;-76
2022/06/16 04:34:48;;;;;;;;;22.00;22.00;23.60;44.70;;;;;;5076502;28;8756;-76
2022/06/16 04:37:14;;;;;;;;;23.67;23.67;23.70;43.30;;;;;;5085006;28;8792;-75
2022/06/16 04:39:40;;;;;;;;;22.33;22.33;23.70;43.30;;;;;;5089174;28;8860;-74
2022/06/16 04:42:06;;;;;;;;;26.33;26.33;23.70;43.70;;;;;;5080427;28;8770;-73
2022/06/16 04:44:34;;;;;;;;;21.00;21.00;23.80;43.70;;;;;;5091717;28;8802;-73
2022/06/16 04:47:03;;;;;;;;;23.67;23.67;23.80;43.70;;;;;;5093193;28;8802;-74
2022/06/16 04:49:29;;;;;;;;;22.67;22.67;23.90;43.80;;;;;;5083916;28;8788;-74
2022/06/16 04:51:55;;;;;;;;;20.67;20.67;23.90;44.00;;;;;;5095820;28;8890;-75
2022/06/16 04:54:22;;;;;;;;;24.33;24.33;23.90;44.20;;;;;;5091043;28;8776;-76
2022/06/16 04:56:48;;;;;;;;;23.67;23.67;24.00;45.30;;;;;;5092397;28;8772;-75
2022/06/16 04:59:13;;;;;;;;;27.33;27.00;24.00;44.70;;;;;;5096951;28;8786;-73
2022/06/16 05:01:40;;;;;;;;;24.00;24.00;24.10;44.50;;;;;;5092535;28;8795;-74
2022/06/16 05:04:06;;;;;;;;;28.33;28.33;24.10;44.70;;;;;;5088248;28;8774;-72
2022/06/16 05:06:32;;;;;;;;;25.67;25.67;24.20;44.40;;;;;;5077165;28;8819;-71
2022/06/16 05:08:58;;;;;;;;;16.00;16.00;24.20;44.50;;;;;;5077571;28;8840;-71
2022/06/16 05:11:24;;;;;;;;;24.67;24.67;24.30;44.50;;;;;;5077328;28;8738;-74
2022/06/16 05:13:49;;;;;;;;;27.00;27.00;24.40;44.50;;;;;;5076962;28;8769;-72
2022/06/16 05:16:15;;;;;;;;;31.00;30.67;24.40;44.40;;;;;;5077243;28;8793;-74
2022/06/16 05:18:41;;;;;;;;;25.67;25.67;24.40;44.50;;;;;;5076030;28;8891;-75
2022/06/16 05:21:11;;;;;;;;;30.00;30.00;24.50;44.40;;;;;;5076306;28;8816;-74
2022/06/16 05:23:37;;;;;;;;;28.33;28.33;24.50;44.10;;;;;;5075871;28;8840;-75
2022/06/16 05:26:03;;;;;;;;;31.33;31.33;24.60;43.90;;;;;;5075750;28;8794;-72
2022/06/16 05:28:30;;;;;;;;;28.00;28.00;24.70;43.90;;;;;;5075472;28;8816;-73
2022/06/16 05:30:56;;;;;;;;;25.67;25.67;24.70;43.80;;;;;;5057691;28;8774;-71
2022/06/16 05:33:23;;;;;;;;;26.67;26.67;24.70;43.70;;;;;;5057886;28;8766;-73
2022/06/16 05:36:00;;;;;;;;;27.33;27.33;24.70;43.90;;;;;;5075719;28;8766;-72
2022/06/16 05:38:26;;;;;;;;;25.00;25.00;24.80;43.70;;;;;;5075702;28;8912;-71
2022/06/16 05:41:01;;;;;;;;;28.67;28.67;24.80;44.10;;;;;;5075436;28;8774;-72
2022/06/16 05:43:28;;;;;;;;;30.00;30.00;24.90;43.90;;;;;;5075354;28;8765;-74
2022/06/16 05:45:54;;;;;;;;;27.00;27.00;24.90;44.20;;;;;;5075284;28;8890;-73
2022/06/16 05:48:20;;;;;;;;;24.33;24.33;25.00;43.70;;;;;;5075246;28;9388;-72
2022/06/16 05:50:45;;;;;;;;;26.67;26.67;25.00;43.80;;;;;;5075281;28;8754;-72
2022/06/16 05:53:11;;;;;;;;;27.67;27.67;25.00;43.70;;;;;;5075131;28;9404;-72
2022/06/16 05:55:37;;;;;;;;;25.33;25.33;25.10;43.60;;;;;;5075195;28;8899;-72
2022/06/16 05:58:03;;;;;;;;;29.33;29.33;25.10;43.80;;;;;;5075248;28;8781;-73
2022/06/16 06:00:30;;;;;;;;;28.33;28.33;25.20;43.50;;;;;;5075097;28;8781;-72
2022/06/16 06:02:58;;;;;;;;;28.33;28.33;25.20;43.40;;;;;;5074647;28;8774;-74
2022/06/16 06:05:26;;;;;;;;;27.33;27.33;25.30;43.30;;;;;;5075111;28;8802;-73
2022/06/16 06:18:58;;;;;;;;;32.33;31.33;25.40;42.50;;;;;;5028590;28;1348527;-73
2022/06/16 06:24:13;;;;;;;;;29.33;29.33;25.50;43.10;;;;;;5075849;28;8734;-72
2022/06/16 06:26:39;;;;;;;;;31.33;31.00;25.60;42.70;;;;;;5075601;28;8922;-74
2022/06/16 06:29:06;;;;;;;;;28.33;28.33;25.70;43.20;;;;;;5075599;28;8781;-72
2022/06/16 06:31:31;;;;;;;;;35.67;33.33;25.80;42.60;;;;;;5075704;28;8781;-73
2022/06/16 06:33:57;;;;;;;;;36.33;33.67;25.80;42.60;;;;;;5075598;28;8758;-74
2022/06/16 06:36:23;;;;;;;;;36.00;34.00;25.90;43.30;;;;;;5075036;28;8785;-72
2022/06/16 06:38:49;;;;;;;;;38.67;35.67;26.00;41.90;;;;;;5074683;28;8794;-74
2022/06/16 06:41:17;;;;;;;;;40.33;36.67;26.00;41.70;;;;;;5075544;28;8770;-74
2022/06/16 06:43:43;;;;;;;;;32.67;31.67;26.10;42.20;;;;;;5075814;28;9525;-72
2022/06/16 06:46:10;;;;;;;;;33.33;32.33;26.10;41.80;;;;;;5075245;28;8801;-72
2022/06/16 06:48:36;;;;;;;;;30.00;30.00;26.20;41.30;;;;;;5075367;28;8773;-74
2022/06/16 06:51:02;;;;;;;;;31.67;31.33;26.20;41.70;;;;;;5074778;28;8793;-74
2022/06/16 06:53:28;;;;;;;;;26.00;26.00;26.30;41.40;;;;;;5075460;28;9523;-73
2022/06/16 06:55:54;;;;;;;;;31.67;30.67;26.40;41.30;;;;;;5075235;28;8790;-73
2022/06/16 06:58:21;;;;;;;;;30.33;30.33;26.50;41.20;;;;;;5074851;28;8858;-72
2022/06/16 07:00:51;;;;;;;;;32.00;31.33;26.50;42.20;;;;;;5075291;28;8762;-73
2022/06/16 07:03:18;;;;;;;;;29.67;29.67;26.50;41.80;;;;;;5075354;28;8777;-73
2022/06/16 07:05:44;;;;;;;;;27.00;27.00;26.60;41.50;;;;;;5075118;28;8790;-73
2022/06/16 07:08:10;;;;;;;;;20.67;20.67;26.60;40.40;;;;;;5075335;28;8789;-73
2022/06/16 07:10:35;;;;;;;;;25.00;25.00;26.60;38.30;;;;;;5074755;28;8758;-75
2022/06/16 07:13:02;;;;;;;;;20.67;20.67;26.60;38.30;;;;;;5075009;28;8811;-72
2022/06/16 07:15:28;;;;;;;;;16.67;16.67;26.70;39.30;;;;;;5074881;28;8769;-72
2022/06/16 07:17:53;;;;;;;;;25.00;25.00;26.70;38.70;;;;;;5074739;28;8802;-74
2022/06/16 07:20:19;;;;;;;;;19.00;18.00;26.80;39.60;;;;;;5074979;28;8774;-73
2022/06/16 07:22:46;;;;;;;;;18.33;18.33;26.90;39.50;;;;;;5074725;28;9400;-73
2022/06/16 07:25:13;;;;;;;;;23.33;23.33;27.00;40.10;;;;;;5074931;28;8836;-73
2022/06/16 07:27:39;;;;;;;;;26.33;26.33;27.00;40.00;;;;;;5074937;28;9445;-73
2022/06/16 07:30:13;;;;;;;;;23.33;23.33;27.00;40.00;;;;;;5074680;28;8766;-73
2022/06/16 07:32:42;;;;;;;;;26.00;26.00;27.00;38.70;;;;;;5074890;28;9419;-73
2022/06/16 07:35:09;;;;;;;;;20.33;20.33;27.10;39.60;;;;;;5074797;28;8778;-71
2022/06/16 07:37:35;;;;;;;;;22.00;22.00;27.20;38.80;;;;;;5083808;28;8791;-73
2022/06/16 07:40:02;;;;;;;;;21.67;21.67;27.20;37.20;;;;;;5074710;28;8811;-73
2022/06/16 07:42:28;;;;;;;;;20.67;20.67;27.20;38.10;;;;;;5080898;28;9448;-72
2022/06/16 07:44:54;;;;;;;;;22.00;22.00;27.30;37.20;;;;;;5093560;28;8886;-72
2022/06/16 07:47:20;;;;;;;;;23.67;23.67;27.40;38.10;;;;;;5089697;28;8922;-72
2022/06/16 07:49:49;;;;;;;;;20.33;20.33;27.40;38.20;;;;;;5092379;28;8756;-73
2022/06/16 07:52:16;;;;;;;;;18.67;18.67;27.50;37.90;;;;;;5093546;28;8818;-72
2022/06/16 07:54:42;;;;;;;;;15.67;15.67;27.60;37.30;;;;;;5093057;28;8871;-71
2022/06/16 07:57:09;;;;;;;;;18.00;18.00;27.20;33.60;;;;;;5093210;28;11459;-71
2022/06/16 07:59:35;;;;;;;;;15.00;15.00;27.30;33.80;;;;;;5092706;28;11464;-70
2022/06/16 08:02:01;;;;;;;;;15.33;15.33;27.40;35.70;;;;;;5088009;28;11474;-72
2022/06/16 08:04:27;;;;;;;;;14.00;14.00;27.60;33.70;;;;;;5090324;28;8776;-73
2022/06/16 08:06:53;;;;;;;;;19.67;19.67;27.70;33.70;;;;;;5093028;28;8810;-72
2022/06/16 08:09:19;;;;;;;;;14.00;14.00;27.80;32.00;;;;;;5093291;28;8764;-72
2022/06/16 08:12:04;;;;;;;;;13.67;13.67;27.80;32.10;;;;;;5093336;28;11510;-73
2022/06/16 08:14:38;;;;;;;;;11.67;11.67;27.90;32.20;;;;;;5088950;28;9528;-72
2022/06/16 08:17:12;;;;;;;;;12.33;12.33;27.90;31.00;;;;;;5093325;28;11447;-72
2022/06/16 08:19:39;;;;;;;;;12.33;12.33;27.90;30.50;;;;;;5094486;28;11411;-72
2022/06/16 08:22:06;;;;;;;;;12.67;12.67;28.10;31.40;;;;;;5093731;28;11515;-71
2022/06/16 08:24:31;;;;;;;;;10.00;10.00;28.20;32.50;;;;;;5095932;28;11445;-71
2022/06/16 08:27:00;;;;;;;;;9.00;9.00;28.30;30.20;;;;;;5096928;28;11440;-73
2022/06/16 08:29:26;;;;;;;;;12.67;12.67;28.40;31.50;;;;;;5095350;28;8791;-72
2022/06/16 08:31:52;;;;;;;;;15.00;15.00;28.30;30.70;;;;;;5094053;28;11501;-72
2022/06/16 08:34:18;;;;;;;;;15.00;15.00;28.40;31.70;;;;;;5097044;28;11424;-71
2022/06/16 08:36:44;;;;;;;;;13.25;12.00;28.50;31.50;;;;;;5097151;28;8776;-70
2022/06/16 08:39:10;;;;;;;;;12.25;12.25;28.70;31.10;;;;;;5097189;28;11462;-73
2022/06/16 08:42:02;;;;;;;;;15.00;15.00;28.70;32.50;;;;;;5092930;28;8853;-72
2022/06/16 08:45:03;;;;;;;;;14.67;14.67;28.90;32.40;;;;;;5096640;28;11430;-72
2022/06/16 08:47:46;;;;;;;;;15.00;15.00;28.90;31.90;;;;;;5081913;28;11500;-72
2022/06/16 08:50:29;;;;;;;;;12.00;12.00;28.90;32.00;;;;;;5092079;28;11478;-74
2022/06/16 08:53:26;;;;;;;;;12.33;12.33;28.90;32.00;;;;;;5093181;28;11434;-73
2022/06/16 08:56:20;;;;;;;;;15.33;15.33;28.90;32.60;;;;;;5094709;28;11466;-72
2022/06/16 08:58:59;;;;;;;;;15.00;15.00;29.10;32.40;;;;;;5055271;28;11445;-75
2022/06/16 09:01:38;;;;;;;;;15.00;15.00;29.30;33.10;;;;;;5092863;28;11459;-73
2022/06/16 09:04:22;;;;;;;;;14.67;14.67;29.50;33.00;;;;;;5095572;28;11417;-71
2022/06/16 09:07:05;;;;;;;;;14.33;14.33;29.50;31.30;;;;;;5104118;28;11435;-73
2022/06/16 09:13:07;;;;;;;;;9.75;9.75;29.70;29.70;;;;;;5093222;28;11395;-72
2022/06/16 09:15:53;;;;;;;;;8.00;8.00;29.60;28.10;;;;;;5078205;28;11417;-72
2022/06/16 09:18:52;;;;;;;;;10.00;10.00;29.40;27.40;;;;;;5090961;28;11403;-74
2022/06/16 09:21:51;;;;;;;;;8.25;8.25;29.50;26.80;;;;;;5091106;28;11420;-72
2022/06/16 09:24:26;;;;;;;;;8.00;8.00;29.60;26.50;;;;;;5090513;28;11369;-73
2022/06/16 09:27:07;;;;;;;;;10.50;10.50;29.90;27.40;;;;;;5095671;28;12039;-73
2022/06/16 09:29:49;;;;;;;;;13.00;13.00;30.10;27.80;;;;;;5094987;28;12045;-73
2022/06/16 09:32:32;;;;;;;;;12.00;12.00;30.40;28.20;;;;;;5094096;28;11416;-80
2022/06/16 09:35:07;;;;;;;;;9.00;9.00;30.30;27.90;;;;;;5090047;28;11426;-70
2022/06/16 09:37:43;;;;;;;;;7.50;7.50;30.20;26.80;;;;;;5093667;28;11392;-72
2022/06/16 09:40:27;;;;;;;;;9.00;9.00;30.30;26.80;;;;;;5095756;28;11372;-71
2022/06/16 09:43:00;;;;;;;;;9.00;9.00;30.50;27.00;;;;;;5095046;28;11424;-70
2022/06/16 09:45:48;;;;;;;;;9.00;9.00;30.80;26.90;;;;;;5093324;28;11444;-73
2022/06/16 09:48:18;;;;;;;;;11.25;11.25;30.70;26.00;;;;;;5095022;28;11360;-72
2022/06/16 09:50:47;;;;;;;;;11.00;11.00;30.80;25.70;;;;;;5093123;28;11400;-72
2022/06/16 09:53:28;;;;;;;;;11.50;11.50;30.90;26.90;;;;;;5091952;28;11524;-71
2022/06/16 09:56:03;;;;;;;;;10.00;10.00;31.00;26.60;;;;;;5083848;28;11499;-73
2022/06/16 09:58:52;;;;;;;;;10.25;10.25;31.10;26.50;;;;;;5090692;28;11546;-73
2022/06/16 10:01:21;;;;;;;;;8.75;8.75;31.30;25.90;;;;;;5095345;28;11380;-72
2022/06/16 10:03:52;;;;;;;;;7.00;7.00;31.50;26.30;;;;;;5094939;28;11390;-73
2022/06/16 10:06:43;;;;;;;;;9.25;9.25;31.60;26.40;;;;;;5092289;28;11409;-72
2022/06/16 10:09:19;;;;;;;;;7.50;7.50;31.60;24.70;;;;;;5094147;28;11469;-71
2022/06/16 10:12:10;;;;;;;;;10.75;10.75;31.50;24.70;;;;;;5093309;28;11389;-72
2022/06/16 10:14:51;;;;;;;;;7.75;7.75;31.70;25.90;;;;;;5094802;28;11393;-71
2022/06/16 10:17:21;;;;;;;;;9.50;9.50;31.70;25.00;;;;;;5094743;28;11545;-71
2022/06/16 10:19:47;;;;;;;;;11.25;11.25;31.70;25.00;;;;;;5094070;28;11382;-70
2022/06/16 10:22:16;;;;;;;;;12.00;12.00;31.80;26.80;;;;;;5090256;28;11429;-72
2022/06/16 10:25:09;;;;;;;;;10.50;10.50;31.80;25.90;;;;;;5091037;28;11432;-72
2022/06/16 10:27:47;;;;;;;;;12.25;12.25;31.90;26.30;;;;;;5080085;28;11426;-73
2022/06/16 10:30:22;;;;;;;;;7.50;7.00;32.30;26.40;;;;;;5088483;28;11533;-73
2022/06/16 10:33:20;;;;;;;;;8.75;8.75;32.40;25.80;;;;;;5095306;28;11393;-72
2022/06/16 10:35:57;;;;;;;;;12.00;12.00;32.40;25.80;;;;;;5084678;28;11455;-71
2022/06/16 10:38:42;;;;;;;;;12.75;12.75;32.50;25.80;;;;;;5095364;28;11514;-72
2022/06/16 10:41:23;;;;;;;;;11.00;11.00;32.80;25.40;;;;;;5095807;28;11432;-70
2022/06/16 10:43:53;;;;;;;;;11.75;11.75;33.10;24.80;;;;;;5094528;28;11552;-71
2022/06/16 10:46:22;;;;;;;;;10.25;10.25;33.30;24.70;;;;;;5094718;28;11479;-70
2022/06/16 10:48:55;;;;;;;;;10.75;10.75;33.10;23.40;;;;;;5095375;28;12024;-71
2022/06/16 10:51:24;;;;;;;;;11.00;11.00;33.30;24.40;;;;;;5095508;28;11441;-71
2022/06/16 10:54:14;;;;;;;;;14.25;14.25;33.30;24.30;;;;;;5087398;28;12437;-71
2022/06/16 10:56:41;;;;;;;;;14.00;14.00;33.50;24.10;;;;;;5088668;28;11429;-73
2022/06/16 10:59:28;;;;;;;;;9.50;9.50;33.50;24.00;;;;;;5071797;28;11457;-70
2022/06/16 11:02:00;;;;;;;;;15.75;15.75;33.80;23.70;;;;;;5087939;28;11397;-72
2022/06/16 11:04:35;;;;;;;;;10.00;10.00;34.00;23.80;;;;;;5087584;28;12050;-71
2022/06/16 11:07:02;;;;;;;;;14.00;14.00;33.90;23.80;;;;;;5092815;28;11513;-71
2022/06/16 11:09:32;;;;;;;;;9.50;9.50;34.10;23.60;;;;;;5092192;28;11511;-71
2022/06/16 11:12:13;;;;;;;;;28.00;28.00;34.20;22.50;;;;;;5089060;28;11382;-72
2022/06/16 11:14:40;;;;;;;;;53.00;43.67;34.30;22.90;;;;;;5089959;28;11432;-73
2022/06/16 11:17:26;;;;;;;;;21.00;21.00;34.60;22.70;;;;;;5056628;28;8812;-73
2022/06/16 11:20:03;;;;;;;;;14.50;14.50;34.60;23.10;;;;;;5074189;28;11450;-74
2022/06/16 11:22:34;;;;;;;;;16.75;16.75;34.90;22.90;;;;;;5074980;28;12089;-74
2022/06/16 11:25:17;;;;;;;;;15.00;15.00;35.00;22.40;;;;;;5090194;28;11447;-74
2022/06/16 11:27:50;;;;;;;;;13.75;13.75;35.20;22.20;;;;;;5115312;28;11431;-74
2022/06/16 11:30:34;;;;;;;;;12.00;12.00;35.20;22.80;;;;;;5115297;28;11437;-74
2022/06/16 11:33:01;;;;;;;;;14.25;14.25;35.20;22.40;;;;;;5115472;28;11587;-74
2022/06/16 11:35:53;;;;;;;;;13.25;13.25;35.40;22.00;;;;;;5115359;28;12211;-74
2022/06/16 11:38:48;;;;;;;;;27.00;25.67;35.70;22.10;;;;;;5115037;28;11438;-75
2022/06/16 11:41:15;;;;;;;;;12.00;12.00;35.50;21.50;;;;;;5012392;28;11534;-73
2022/06/16 11:44:07;;;;;;;;;13.00;13.00;35.50;22.20;;;;;;5012596;28;11533;-74
2022/06/16 11:46:35;;;;;;;;;15.00;15.00;35.40;21.70;;;;;;5012407;28;11538;-73
2022/06/16 11:49:38;;;;;;;;;11.00;11.00;35.30;21.80;;;;;;4990591;28;12308;-73
2022/06/16 11:52:04;;;;;;;;;14.25;14.25;35.60;22.00;;;;;;4991172;28;11549;-74
2022/06/16 11:54:44;;;;;;;;;13.50;13.50;35.60;21.40;;;;;;4996039;28;11642;-74
2022/06/16 11:57:13;;;;;;;;;10.25;10.25;35.70;21.60;;;;;;5012435;28;8776;-73
2022/06/16 11:59:59;;;;;;;;;12.25;12.25;35.90;21.60;;;;;;5003896;28;11512;-71
2022/06/16 12:02:39;;;;;;;;;14.25;14.25;35.90;21.40;;;;;;4991246;28;12113;-71
2022/06/16 12:05:29;;;;;;;;;14.75;14.75;36.30;21.40;;;;;;4988735;28;11753;-71
2022/06/16 12:08:31;;;;;;;;;14.50;14.50;36.50;21.10;;;;;;4989926;28;12264;-71
2022/06/16 12:11:10;;;;;;;;;13.00;13.00;36.80;20.70;;;;;;4959271;28;11538;-71
2022/06/16 12:13:56;;;;;;;;;13.00;13.00;36.90;20.70;;;;;;4990126;28;11544;-72
2022/06/16 12:16:39;;;;;;;;;13.00;13.00;37.10;20.50;;;;;;4991970;28;11562;-72
2022/06/16 12:19:24;;;;;;;;;12.00;12.00;37.10;20.60;;;;;;5083352;28;12239;-73
2022/06/16 12:21:55;;;;;;;;;11.50;11.50;36.60;20.00;;;;;;5087285;28;11501;-71
2022/06/16 12:24:46;;;;;;;;;8.75;8.75;36.20;20.50;;;;;;5093263;28;11418;-71
2022/06/16 12:27:19;;;;;;;;;13.00;13.00;36.50;20.30;;;;;;5091161;28;11483;-73
2022/06/16 12:30:06;;;;;;;;;13.00;13.00;36.30;20.50;;;;;;5085261;28;12145;-71
2022/06/16 12:32:44;;;;;;;;;9.75;9.00;36.30;20.90;;;;;;5087645;28;11570;-71
2022/06/16 12:35:33;;;;;;;;;12.00;12.00;36.50;20.60;;;;;;5085458;28;12138;-74
2022/06/16 12:38:13;;;;;;;;;12.00;12.00;36.60;20.70;;;;;;5088092;28;11493;-72
2022/06/16 12:40:49;;;;;;;;;13.75;13.75;36.60;21.20;;;;;;5092490;28;11423;-72
2022/06/16 12:43:29;;;;;;;;;13.00;13.00;36.80;21.10;;;;;;5073984;28;11445;-73
2022/06/16 12:46:13;;;;;;;;;15.00;15.00;37.10;20.90;;;;;;5089773;28;11564;-74
2022/06/16 12:48:50;;;;;;;;;16.75;16.00;37.30;20.30;;;;;;5088130;28;11414;-74
2022/06/16 12:51:20;;;;;;;;;15.50;15.50;37.30;21.00;;;;;;5092934;28;11413;-76
2022/06/16 12:54:06;;;;;;;;;17.75;17.75;37.30;20.50;;;;;;5090076;28;11417;-74
2022/06/16 12:56:49;;;;;;;;;18.00;18.00;37.40;20.70;;;;;;5090903;28;12176;-77
2022/06/16 12:59:28;;;;;;;;;11.75;11.75;37.50;20.90;;;;;;5090353;28;11473;-73
2022/06/16 13:01:59;;;;;;;;;13.25;13.25;37.60;21.00;;;;;;5089682;28;11557;-75
2022/06/16 13:04:29;;;;;;;;;12.75;12.75;37.60;20.90;;;;;;5092735;28;11551;-74
2022/06/16 13:06:57;;;;;;;;;21.00;21.00;37.10;19.60;;;;;;5090235;28;11558;-75
2022/06/16 13:09:24;;;;;;;;;15.00;15.00;36.90;20.10;;;;;;5093035;28;11456;-74
2022/06/16 13:12:21;;;;;;;;;27.67;27.67;36.70;20.00;;;;;;5095927;28;11415;-73
2022/06/16 13:15:23;;;;;;;;;17.25;17.25;36.70;21.00;;;;;;5013270;28;8781;-75
2022/06/16 13:17:54;;;;;;;;;17.25;17.25;37.20;20.80;;;;;;4974154;28;11670;-71
2022/06/16 13:20:26;;;;;;;;;13.75;13.75;37.40;20.80;;;;;;4974743;28;11715;-72
2022/06/16 13:23:32;;;;;;;;;24.00;24.00;37.60;21.00;;;;;;4975506;28;11514;-72
2022/06/16 13:26:26;;;;;;;;;19.67;19.67;37.50;20.20;;;;;;4986563;28;11578;-72
2022/06/16 13:28:58;;;;;;;;;15.50;15.50;37.60;20.30;;;;;;4975412;28;11554;-73
2022/06/16 13:31:54;;;;;;;;;12.00;12.00;37.80;19.90;;;;;;4975000;28;11548;-72